sensor_id;sensor_type;location;lat;lon;timestamp;P1;durP1;ratioP1;P2;durP2;ratioP2
64085;SDS011;50333;47.436;21.390;2023-02-28T00:01:29;7.07;;;4.53;;
64085;SDS011;50333;47.436;21.390;2023-02-28T00:03:58;6.57;;;4.22;;
64085;SDS011;50333;47.436;21.390;2023-02-28T00:06:26;6.37;;;4.62;;
64085;SDS011;50333;47.436;21.390;2023-02-28T00:08:54;7.55;;;4.47;;
64085;SDS011;50333;47.436;21.390;2023-02-28T00:11:22;8.93;;;4.80;;
64085;SDS011;50333;47.436;21.390;2023-02-28T00:13:50;8.48;;;4.93;;
64085;SDS011;50333;47.436;21.390;2023-02-28T00:16:20;7.97;;;4.60;;
64085;SDS011;50333;47.436;21.390;2023-02-28T00:18:49;7.90;;;4.40;;
64085;SDS011;50333;47.436;21.390;2023-02-28T00:21:17;7.40;;;4.30;;
64085;SDS011;50333;47.436;21.390;2023-02-28T00:23:46;6.28;;;4.22;;
64085;SDS011;50333;47.436;21.390;2023-02-28T00:26:15;5.72;;;4.20;;
64085;SDS011;50333;47.436;21.390;2023-02-28T00:28:43;6.15;;;4.40;;
64085;SDS011;50333;47.436;21.390;2023-02-28T00:31:11;7.53;;;4.35;;
64085;SDS011;50333;47.436;21.390;2023-02-28T00:33:39;7.82;;;4.57;;
64085;SDS011;50333;47.436;21.390;2023-02-28T00:36:08;7.50;;;4.47;;
64085;SDS011;50333;47.436;21.390;2023-02-28T00:38:37;4.87;;;3.92;;
64085;SDS011;50333;47.436;21.390;2023-02-28T00:41:06;9.43;;;4.57;;
64085;SDS011;50333;47.436;21.390;2023-02-28T00:43:35;5.57;;;3.70;;
64085;SDS011;50333;47.436;21.390;2023-02-28T00:46:04;7.80;;;4.43;;
64085;SDS011;50333;47.436;21.390;2023-02-28T00:48:33;6.00;;;3.87;;
64085;SDS011;50333;47.436;21.390;2023-02-28T00:51:01;5.78;;;3.85;;
64085;SDS011;50333;47.436;21.390;2023-02-28T00:53:29;6.53;;;4.25;;
64085;SDS011;50333;47.436;21.390;2023-02-28T00:55:57;7.87;;;4.65;;
64085;SDS011;50333;47.436;21.390;2023-02-28T00:58:26;7.12;;;4.25;;
64085;SDS011;50333;47.436;21.390;2023-02-28T01:00:54;8.25;;;4.60;;
64085;SDS011;50333;47.436;21.390;2023-02-28T01:03:22;5.62;;;3.65;;
64085;SDS011;50333;47.436;21.390;2023-02-28T01:05:50;7.05;;;4.00;;
64085;SDS011;50333;47.436;21.390;2023-02-28T01:08:20;6.35;;;4.05;;
64085;SDS011;50333;47.436;21.390;2023-02-28T01:10:50;6.18;;;3.78;;
64085;SDS011;50333;47.436;21.390;2023-02-28T01:13:18;4.10;;;3.45;;
64085;SDS011;50333;47.436;21.390;2023-02-28T01:15:49;6.05;;;3.83;;
64085;SDS011;50333;47.436;21.390;2023-02-28T01:18:19;5.72;;;4.12;;
64085;SDS011;50333;47.436;21.390;2023-02-28T01:20:48;7.68;;;4.00;;
64085;SDS011;50333;47.436;21.390;2023-02-28T01:23:16;7.72;;;3.90;;
64085;SDS011;50333;47.436;21.390;2023-02-28T01:25:44;5.47;;;4.37;;
64085;SDS011;50333;47.436;21.390;2023-02-28T01:28:12;6.03;;;3.90;;
64085;SDS011;50333;47.436;21.390;2023-02-28T01:30:40;5.30;;;3.95;;
64085;SDS011;50333;47.436;21.390;2023-02-28T01:33:08;9.45;;;3.83;;
64085;SDS011;50333;47.436;21.390;2023-02-28T01:35:36;7.15;;;4.10;;
64085;SDS011;50333;47.436;21.390;2023-02-28T01:38:04;7.45;;;4.37;;
64085;SDS011;50333;47.436;21.390;2023-02-28T01:40:48;6.90;;;4.15;;
64085;SDS011;50333;47.436;21.390;2023-02-28T01:43:20;5.47;;;3.87;;
64085;SDS011;50333;47.436;21.390;2023-02-28T01:45:55;7.75;;;4.03;;
64085;SDS011;50333;47.436;21.390;2023-02-28T01:48:26;4.07;;;3.33;;
64085;SDS011;50333;47.436;21.390;2023-02-28T01:50:58;7.72;;;3.87;;
64085;SDS011;50333;47.436;21.390;2023-02-28T01:53:33;5.60;;;4.07;;
64085;SDS011;50333;47.436;21.390;2023-02-28T01:56:05;6.00;;;3.70;;
64085;SDS011;50333;47.436;21.390;2023-02-28T01:58:35;6.15;;;3.90;;
64085;SDS011;50333;47.436;21.390;2023-02-28T02:01:04;9.63;;;4.15;;
64085;SDS011;50333;47.436;21.390;2023-02-28T02:03:33;12.00;;;4.62;;
64085;SDS011;50333;47.436;21.390;2023-02-28T02:06:02;5.20;;;3.55;;
64085;SDS011;50333;47.436;21.390;2023-02-28T02:08:31;5.80;;;4.00;;
64085;SDS011;50333;47.436;21.390;2023-02-28T02:11:00;6.53;;;4.28;;
64085;SDS011;50333;47.436;21.390;2023-02-28T02:35:56;5.68;;;4.12;;
64085;SDS011;50333;47.436;21.390;2023-02-28T02:38:54;6.55;;;4.00;;
64085;SDS011;50333;47.436;21.390;2023-02-28T02:47:08;5.78;;;3.45;;
64085;SDS011;50333;47.436;21.390;2023-02-28T02:49:42;6.97;;;4.30;;
64085;SDS011;50333;47.436;21.390;2023-02-28T02:52:16;6.37;;;3.92;;
64085;SDS011;50333;47.436;21.390;2023-02-28T02:54:48;7.05;;;3.60;;
64085;SDS011;50333;47.436;21.390;2023-02-28T02:57:27;5.95;;;3.95;;
64085;SDS011;50333;47.436;21.390;2023-02-28T03:00:02;13.38;;;5.50;;
64085;SDS011;50333;47.436;21.390;2023-02-28T03:02:32;16.95;;;7.15;;
64085;SDS011;50333;47.436;21.390;2023-02-28T03:05:07;13.82;;;6.90;;
64085;SDS011;50333;47.436;21.390;2023-02-28T03:07:41;10.10;;;5.25;;
64085;SDS011;50333;47.436;21.390;2023-02-28T03:10:30;13.02;;;4.93;;
64085;SDS011;50333;47.436;21.390;2023-02-28T03:21:24;6.50;;;4.10;;
64085;SDS011;50333;47.436;21.390;2023-02-28T03:24:08;5.30;;;3.85;;
64085;SDS011;50333;47.436;21.390;2023-02-28T03:26:45;5.45;;;3.72;;
64085;SDS011;50333;47.436;21.390;2023-02-28T03:29:28;4.43;;;3.60;;
64085;SDS011;50333;47.436;21.390;2023-02-28T03:32:08;5.47;;;3.85;;
64085;SDS011;50333;47.436;21.390;2023-02-28T03:34:51;5.62;;;4.18;;
64085;SDS011;50333;47.436;21.390;2023-02-28T03:37:25;8.32;;;3.92;;
64085;SDS011;50333;47.436;21.390;2023-02-28T03:40:01;6.53;;;4.45;;
64085;SDS011;50333;47.436;21.390;2023-02-28T03:42:51;6.60;;;3.78;;
64085;SDS011;50333;47.436;21.390;2023-02-28T03:45:27;8.95;;;4.30;;
64085;SDS011;50333;47.436;21.390;2023-02-28T03:50:32;7.25;;;4.53;;
64085;SDS011;50333;47.436;21.390;2023-02-28T03:53:10;6.70;;;3.83;;
64085;SDS011;50333;47.436;21.390;2023-02-28T03:55:46;8.68;;;4.10;;
64085;SDS011;50333;47.436;21.390;2023-02-28T03:58:29;5.57;;;4.35;;
64085;SDS011;50333;47.436;21.390;2023-02-28T04:01:04;6.32;;;4.55;;
64085;SDS011;50333;47.436;21.390;2023-02-28T04:03:37;6.85;;;4.25;;
64085;SDS011;50333;47.436;21.390;2023-02-28T04:06:07;5.80;;;4.50;;
64085;SDS011;50333;47.436;21.390;2023-02-28T04:08:40;8.00;;;4.47;;
64085;SDS011;50333;47.436;21.390;2023-02-28T04:11:13;7.87;;;4.82;;
64085;SDS011;50333;47.436;21.390;2023-02-28T04:13:47;8.93;;;4.72;;
64085;SDS011;50333;47.436;21.390;2023-02-28T04:16:15;22.70;;;4.45;;
64085;SDS011;50333;47.436;21.390;2023-02-28T04:19:01;6.12;;;3.87;;
64085;SDS011;50333;47.436;21.390;2023-02-28T04:21:36;6.03;;;4.07;;
64085;SDS011;50333;47.436;21.390;2023-02-28T04:24:10;7.25;;;4.25;;
64085;SDS011;50333;47.436;21.390;2023-02-28T04:26:44;6.65;;;3.92;;
64085;SDS011;50333;47.436;21.390;2023-02-28T04:29:18;4.93;;;3.87;;
64085;SDS011;50333;47.436;21.390;2023-02-28T04:32:03;6.10;;;3.90;;
64085;SDS011;50333;47.436;21.390;2023-02-28T04:34:32;7.30;;;4.53;;
64085;SDS011;50333;47.436;21.390;2023-02-28T04:37:00;9.18;;;4.55;;
64085;SDS011;50333;47.436;21.390;2023-02-28T04:39:44;6.18;;;4.37;;
64085;SDS011;50333;47.436;21.390;2023-02-28T04:42:13;9.55;;;4.65;;
64085;SDS011;50333;47.436;21.390;2023-02-28T04:44:41;7.53;;;4.35;;
64085;SDS011;50333;47.436;21.390;2023-02-28T04:47:09;5.37;;;4.28;;
64085;SDS011;50333;47.436;21.390;2023-02-28T04:49:37;8.63;;;4.57;;
64085;SDS011;50333;47.436;21.390;2023-02-28T04:52:05;8.50;;;4.43;;
64085;SDS011;50333;47.436;21.390;2023-02-28T04:54:35;8.73;;;3.85;;
64085;SDS011;50333;47.436;21.390;2023-02-28T04:57:02;7.65;;;4.93;;
64085;SDS011;50333;47.436;21.390;2023-02-28T04:59:33;5.32;;;4.22;;
64085;SDS011;50333;47.436;21.390;2023-02-28T05:02:01;6.18;;;3.80;;
64085;SDS011;50333;47.436;21.390;2023-02-28T05:04:34;6.80;;;4.05;;
64085;SDS011;50333;47.436;21.390;2023-02-28T05:07:02;12.48;;;3.92;;
64085;SDS011;50333;47.436;21.390;2023-02-28T05:09:30;8.80;;;4.62;;
64085;SDS011;50333;47.436;21.390;2023-02-28T05:12:00;5.45;;;4.00;;
64085;SDS011;50333;47.436;21.390;2023-02-28T05:14:28;5.55;;;3.83;;
64085;SDS011;50333;47.436;21.390;2023-02-28T05:16:55;6.72;;;3.80;;
64085;SDS011;50333;47.436;21.390;2023-02-28T05:19:23;5.18;;;3.85;;
64085;SDS011;50333;47.436;21.390;2023-02-28T05:21:53;4.80;;;3.87;;
64085;SDS011;50333;47.436;21.390;2023-02-28T05:24:22;5.57;;;3.37;;
64085;SDS011;50333;47.436;21.390;2023-02-28T05:26:50;5.40;;;3.53;;
64085;SDS011;50333;47.436;21.390;2023-02-28T05:29:20;4.95;;;3.25;;
64085;SDS011;50333;47.436;21.390;2023-02-28T05:31:49;5.87;;;3.75;;
64085;SDS011;50333;47.436;21.390;2023-02-28T05:34:17;6.65;;;4.35;;
64085;SDS011;50333;47.436;21.390;2023-02-28T05:36:45;5.37;;;3.95;;
64085;SDS011;50333;47.436;21.390;2023-02-28T05:39:13;5.40;;;4.28;;
64085;SDS011;50333;47.436;21.390;2023-02-28T05:41:41;6.53;;;3.28;;
64085;SDS011;50333;47.436;21.390;2023-02-28T05:44:10;5.15;;;3.42;;
64085;SDS011;50333;47.436;21.390;2023-02-28T05:46:38;4.78;;;3.65;;
64085;SDS011;50333;47.436;21.390;2023-02-28T05:49:05;6.10;;;3.22;;
64085;SDS011;50333;47.436;21.390;2023-02-28T05:51:33;3.97;;;3.15;;
64085;SDS011;50333;47.436;21.390;2023-02-28T05:54:03;6.82;;;3.60;;
64085;SDS011;50333;47.436;21.390;2023-02-28T05:56:31;6.00;;;3.78;;
64085;SDS011;50333;47.436;21.390;2023-02-28T05:59:01;6.63;;;3.90;;
64085;SDS011;50333;47.436;21.390;2023-02-28T06:01:33;4.72;;;3.58;;
64085;SDS011;50333;47.436;21.390;2023-02-28T06:04:04;4.50;;;3.40;;
64085;SDS011;50333;47.436;21.390;2023-02-28T06:06:43;5.60;;;3.03;;
64085;SDS011;50333;47.436;21.390;2023-02-28T06:09:12;3.45;;;2.60;;
64085;SDS011;50333;47.436;21.390;2023-02-28T06:11:40;5.25;;;3.10;;
64085;SDS011;50333;47.436;21.390;2023-02-28T06:14:12;4.15;;;3.08;;
64085;SDS011;50333;47.436;21.390;2023-02-28T06:16:43;2.75;;;2.40;;
64085;SDS011;50333;47.436;21.390;2023-02-28T06:19:11;5.10;;;2.80;;
64085;SDS011;50333;47.436;21.390;2023-02-28T06:21:38;5.70;;;3.08;;
64085;SDS011;50333;47.436;21.390;2023-02-28T06:24:06;2.67;;;2.47;;
64085;SDS011;50333;47.436;21.390;2023-02-28T06:26:35;3.75;;;2.78;;
64085;SDS011;50333;47.436;21.390;2023-02-28T06:29:03;4.68;;;3.55;;
64085;SDS011;50333;47.436;21.390;2023-02-28T06:31:31;3.62;;;2.80;;
64085;SDS011;50333;47.436;21.390;2023-02-28T06:33:59;4.57;;;2.87;;
64085;SDS011;50333;47.436;21.390;2023-02-28T06:36:27;2.78;;;2.20;;
64085;SDS011;50333;47.436;21.390;2023-02-28T06:38:55;7.87;;;3.70;;
64085;SDS011;50333;47.436;21.390;2023-02-28T06:41:24;4.53;;;3.40;;
64085;SDS011;50333;47.436;21.390;2023-02-28T06:43:54;3.55;;;3.17;;
64085;SDS011;50333;47.436;21.390;2023-02-28T06:46:22;9.88;;;3.03;;
64085;SDS011;50333;47.436;21.390;2023-02-28T06:48:50;5.45;;;3.30;;
64085;SDS011;50333;47.436;21.390;2023-02-28T06:51:19;6.65;;;4.53;;
64085;SDS011;50333;47.436;21.390;2023-02-28T06:53:51;5.10;;;3.70;;
64085;SDS011;50333;47.436;21.390;2023-02-28T06:56:19;8.15;;;4.10;;
64085;SDS011;50333;47.436;21.390;2023-02-28T06:58:48;6.70;;;4.40;;
64085;SDS011;50333;47.436;21.390;2023-02-28T07:01:17;5.32;;;3.90;;
64085;SDS011;50333;47.436;21.390;2023-02-28T07:03:46;5.35;;;3.42;;
64085;SDS011;50333;47.436;21.390;2023-02-28T07:06:13;7.28;;;4.25;;
64085;SDS011;50333;47.436;21.390;2023-02-28T07:08:41;12.05;;;4.90;;
64085;SDS011;50333;47.436;21.390;2023-02-28T07:11:09;11.35;;;5.95;;
64085;SDS011;50333;47.436;21.390;2023-02-28T07:13:37;7.50;;;5.28;;
64085;SDS011;50333;47.436;21.390;2023-02-28T07:16:06;6.97;;;4.68;;
64085;SDS011;50333;47.436;21.390;2023-02-28T07:18:36;8.55;;;4.75;;
64085;SDS011;50333;47.436;21.390;2023-02-28T07:21:05;8.77;;;5.50;;
64085;SDS011;50333;47.436;21.390;2023-02-28T07:23:35;10.90;;;5.47;;
64085;SDS011;50333;47.436;21.390;2023-02-28T07:26:06;8.37;;;4.77;;
64085;SDS011;50333;47.436;21.390;2023-02-28T07:28:38;6.28;;;4.45;;
64085;SDS011;50333;47.436;21.390;2023-02-28T07:31:06;13.40;;;6.35;;
64085;SDS011;50333;47.436;21.390;2023-02-28T07:33:35;6.22;;;4.70;;
64085;SDS011;50333;47.436;21.390;2023-02-28T07:36:08;11.73;;;5.15;;
64085;SDS011;50333;47.436;21.390;2023-02-28T07:38:43;9.23;;;5.95;;
64085;SDS011;50333;47.436;21.390;2023-02-28T07:41:18;7.50;;;4.78;;
64085;SDS011;50333;47.436;21.390;2023-02-28T07:43:47;7.90;;;4.65;;
64085;SDS011;50333;47.436;21.390;2023-02-28T07:46:15;6.90;;;4.43;;
64085;SDS011;50333;47.436;21.390;2023-02-28T07:48:44;6.85;;;5.10;;
64085;SDS011;50333;47.436;21.390;2023-02-28T07:51:12;7.20;;;5.05;;
64085;SDS011;50333;47.436;21.390;2023-02-28T07:53:40;9.07;;;4.90;;
64085;SDS011;50333;47.436;21.390;2023-02-28T07:56:08;9.88;;;5.53;;
64085;SDS011;50333;47.436;21.390;2023-02-28T07:58:36;8.32;;;5.82;;
64085;SDS011;50333;47.436;21.390;2023-02-28T08:01:04;9.15;;;5.70;;
64085;SDS011;50333;47.436;21.390;2023-02-28T08:03:36;7.93;;;5.50;;
64085;SDS011;50333;47.436;21.390;2023-02-28T08:06:05;6.70;;;5.07;;
64085;SDS011;50333;47.436;21.390;2023-02-28T08:08:36;9.15;;;5.55;;
64085;SDS011;50333;47.436;21.390;2023-02-28T08:11:03;8.80;;;4.57;;
64085;SDS011;50333;47.436;21.390;2023-02-28T08:13:31;9.15;;;5.00;;
64085;SDS011;50333;47.436;21.390;2023-02-28T08:16:00;7.12;;;5.07;;
64085;SDS011;50333;47.436;21.390;2023-02-28T08:18:29;6.70;;;4.95;;
64085;SDS011;50333;47.436;21.390;2023-02-28T08:20:56;6.22;;;5.30;;
64085;SDS011;50333;47.436;21.390;2023-02-28T08:23:24;7.97;;;4.85;;
64085;SDS011;50333;47.436;21.390;2023-02-28T08:25:53;7.87;;;5.12;;
64085;SDS011;50333;47.436;21.390;2023-02-28T08:28:22;6.53;;;4.93;;
64085;SDS011;50333;47.436;21.390;2023-02-28T08:30:53;8.88;;;5.82;;
64085;SDS011;50333;47.436;21.390;2023-02-28T08:33:22;8.02;;;5.05;;
64085;SDS011;50333;47.436;21.390;2023-02-28T08:35:54;7.22;;;4.93;;
64085;SDS011;50333;47.436;21.390;2023-02-28T08:38:23;6.78;;;4.90;;
64085;SDS011;50333;47.436;21.390;2023-02-28T08:40:56;8.57;;;5.30;;
64085;SDS011;50333;47.436;21.390;2023-02-28T08:43:28;8.23;;;4.55;;
64085;SDS011;50333;47.436;21.390;2023-02-28T08:45:56;8.18;;;4.65;;
64085;SDS011;50333;47.436;21.390;2023-02-28T08:48:25;8.55;;;5.12;;
64085;SDS011;50333;47.436;21.390;2023-02-28T08:53:35;8.95;;;5.32;;
64085;SDS011;50333;47.436;21.390;2023-02-28T08:58:34;9.35;;;6.32;;
64085;SDS011;50333;47.436;21.390;2023-02-28T09:01:13;9.30;;;6.12;;
64085;SDS011;50333;47.436;21.390;2023-02-28T09:03:42;8.10;;;5.20;;
64085;SDS011;50333;47.436;21.390;2023-02-28T09:06:11;8.15;;;4.20;;
64085;SDS011;50333;47.436;21.390;2023-02-28T09:08:41;9.23;;;5.10;;
64085;SDS011;50333;47.436;21.390;2023-02-28T09:11:09;5.80;;;4.72;;
64085;SDS011;50333;47.436;21.390;2023-02-28T09:21:17;11.35;;;4.95;;
64085;SDS011;50333;47.436;21.390;2023-02-28T09:23:47;6.53;;;5.05;;
64085;SDS011;50333;47.436;21.390;2023-02-28T09:26:17;8.10;;;5.20;;
64085;SDS011;50333;47.436;21.390;2023-02-28T09:28:47;10.07;;;6.20;;
64085;SDS011;50333;47.436;21.390;2023-02-28T09:31:16;10.63;;;7.18;;
64085;SDS011;50333;47.436;21.390;2023-02-28T09:33:51;8.93;;;6.15;;
64085;SDS011;50333;47.436;21.390;2023-02-28T09:36:20;8.45;;;6.20;;
64085;SDS011;50333;47.436;21.390;2023-02-28T09:38:55;9.35;;;5.07;;
64085;SDS011;50333;47.436;21.390;2023-02-28T09:41:24;7.12;;;4.97;;
64085;SDS011;50333;47.436;21.390;2023-02-28T09:43:56;7.22;;;4.90;;
64085;SDS011;50333;47.436;21.390;2023-02-28T09:49:06;8.35;;;4.53;;
64085;SDS011;50333;47.436;21.390;2023-02-28T09:51:49;11.80;;;5.95;;
64085;SDS011;50333;47.436;21.390;2023-02-28T09:54:21;8.60;;;5.62;;
64085;SDS011;50333;47.436;21.390;2023-02-28T09:59:29;13.00;;;5.78;;
64085;SDS011;50333;47.436;21.390;2023-02-28T10:05:01;7.12;;;5.55;;
64085;SDS011;50333;47.436;21.390;2023-02-28T10:07:47;12.35;;;6.30;;
64085;SDS011;50333;47.436;21.390;2023-02-28T10:10:38;7.72;;;5.05;;
64085;SDS011;50333;47.436;21.390;2023-02-28T10:16:14;7.72;;;4.15;;
64085;SDS011;50333;47.436;21.390;2023-02-28T10:18:48;9.18;;;5.60;;
64085;SDS011;50333;47.436;21.390;2023-02-28T10:21:42;7.35;;;4.68;;
64085;SDS011;50333;47.436;21.390;2023-02-28T10:24:35;9.35;;;5.50;;
64085;SDS011;50333;47.436;21.390;2023-02-28T10:27:16;6.70;;;5.57;;
64085;SDS011;50333;47.436;21.390;2023-02-28T10:29:50;9.77;;;5.12;;
64085;SDS011;50333;47.436;21.390;2023-02-28T10:32:22;5.90;;;5.18;;
64085;SDS011;50333;47.436;21.390;2023-02-28T10:37:37;6.80;;;5.22;;
64085;SDS011;50333;47.436;21.390;2023-02-28T10:42:36;9.23;;;5.00;;
64085;SDS011;50333;47.436;21.390;2023-02-28T10:45:09;8.82;;;4.93;;
64085;SDS011;50333;47.436;21.390;2023-02-28T10:50:28;11.30;;;6.35;;
64085;SDS011;50333;47.436;21.390;2023-02-28T10:55:56;10.98;;;6.75;;
64085;SDS011;50333;47.436;21.390;2023-02-28T11:01:16;9.88;;;6.40;;
64085;SDS011;50333;47.436;21.390;2023-02-28T11:03:44;8.40;;;6.75;;
64085;SDS011;50333;47.436;21.390;2023-02-28T11:08:52;11.38;;;6.80;;
64085;SDS011;50333;47.436;21.390;2023-02-28T11:11:23;11.82;;;7.07;;
64085;SDS011;50333;47.436;21.390;2023-02-28T11:13:56;11.12;;;8.18;;
64085;SDS011;50333;47.436;21.390;2023-02-28T11:16:33;13.00;;;9.00;;
64085;SDS011;50333;47.436;21.390;2023-02-28T11:19:04;15.25;;;8.38;;
64085;SDS011;50333;47.436;21.390;2023-02-28T11:21:47;10.23;;;6.40;;
64085;SDS011;50333;47.436;21.390;2023-02-28T11:24:41;11.02;;;6.60;;
64085;SDS011;50333;47.436;21.390;2023-02-28T11:27:25;10.32;;;7.37;;
64085;SDS011;50333;47.436;21.390;2023-02-28T11:30:00;9.40;;;6.22;;
64085;SDS011;50333;47.436;21.390;2023-02-28T11:32:28;8.73;;;6.32;;
64085;SDS011;50333;47.436;21.390;2023-02-28T11:37:38;14.75;;;7.28;;
64085;SDS011;50333;47.436;21.390;2023-02-28T11:40:13;15.68;;;9.18;;
64085;SDS011;50333;47.436;21.390;2023-02-28T11:42:52;11.27;;;8.05;;
64085;SDS011;50333;47.436;21.390;2023-02-28T11:58:52;9.73;;;6.70;;
64085;SDS011;50333;47.436;21.390;2023-02-28T12:10:26;11.25;;;6.95;;
64085;SDS011;50333;47.436;21.390;2023-02-28T12:15:36;89.67;;;47.83;;
64085;SDS011;50333;47.436;21.390;2023-02-28T12:20:59;13.43;;;8.93;;
64085;SDS011;50333;47.436;21.390;2023-02-28T12:29:17;11.23;;;6.57;;
64085;SDS011;50333;47.436;21.390;2023-02-28T12:31:53;11.00;;;6.22;;
64085;SDS011;50333;47.436;21.390;2023-02-28T12:34:25;10.13;;;6.12;;
64085;SDS011;50333;47.436;21.390;2023-02-28T12:37:00;12.23;;;7.82;;
64085;SDS011;50333;47.436;21.390;2023-02-28T12:39:44;11.82;;;6.97;;
64085;SDS011;50333;47.436;21.390;2023-02-28T12:42:19;8.57;;;6.30;;
64085;SDS011;50333;47.436;21.390;2023-02-28T12:45:19;9.90;;;6.60;;
64085;SDS011;50333;47.436;21.390;2023-02-28T12:47:52;9.38;;;6.93;;
64085;SDS011;50333;47.436;21.390;2023-02-28T12:50:27;9.98;;;7.22;;
64085;SDS011;50333;47.436;21.390;2023-02-28T12:55:45;10.80;;;6.82;;
64085;SDS011;50333;47.436;21.390;2023-02-28T13:09:53;10.40;;;7.57;;
64085;SDS011;50333;47.436;21.390;2023-02-28T13:12:23;10.77;;;7.00;;
64085;SDS011;50333;47.436;21.390;2023-02-28T13:14:51;9.40;;;7.43;;
64085;SDS011;50333;47.436;21.390;2023-02-28T13:17:39;15.95;;;7.50;;
64085;SDS011;50333;47.436;21.390;2023-02-28T13:20:19;14.57;;;10.65;;
64085;SDS011;50333;47.436;21.390;2023-02-28T13:22:50;17.97;;;12.57;;
64085;SDS011;50333;47.436;21.390;2023-02-28T13:28:01;61.13;;;40.17;;
64085;SDS011;50333;47.436;21.390;2023-02-28T13:36:09;34.95;;;23.62;;
64085;SDS011;50333;47.436;21.390;2023-02-28T13:38:54;15.23;;;11.18;;
64085;SDS011;50333;47.436;21.390;2023-02-28T13:52:10;18.42;;;10.23;;
64085;SDS011;50333;47.436;21.390;2023-02-28T13:57:37;21.87;;;12.15;;
64085;SDS011;50333;47.436;21.390;2023-02-28T14:05:19;30.00;;;15.98;;
64085;SDS011;50333;47.436;21.390;2023-02-28T14:07:55;17.02;;;9.95;;
64085;SDS011;50333;47.436;21.390;2023-02-28T14:13:43;13.30;;;8.45;;
64085;SDS011;50333;47.436;21.390;2023-02-28T14:16:21;12.23;;;8.15;;
64085;SDS011;50333;47.436;21.390;2023-02-28T14:19:27;13.57;;;10.25;;
64085;SDS011;50333;47.436;21.390;2023-02-28T14:25:13;15.13;;;10.85;;
64085;SDS011;50333;47.436;21.390;2023-02-28T14:31:06;19.80;;;11.23;;
64085;SDS011;50333;47.436;21.390;2023-02-28T14:36:37;19.48;;;13.77;;
64085;SDS011;50333;47.436;21.390;2023-02-28T14:39:14;74.43;;;48.80;;
64085;SDS011;50333;47.436;21.390;2023-02-28T14:41:45;31.08;;;23.12;;
64085;SDS011;50333;47.436;21.390;2023-02-28T14:44:18;13.75;;;10.23;;
64085;SDS011;50333;47.436;21.390;2023-02-28T14:47:00;13.07;;;8.75;;
64085;SDS011;50333;47.436;21.390;2023-02-28T14:49:36;12.55;;;9.75;;
64085;SDS011;50333;47.436;21.390;2023-02-28T14:52:14;39.65;;;27.67;;
64085;SDS011;50333;47.436;21.390;2023-02-28T14:54:46;241.00;;;117.85;;
64085;SDS011;50333;47.436;21.390;2023-02-28T14:57:21;122.15;;;84.10;;
64085;SDS011;50333;47.436;21.390;2023-02-28T15:02:26;12.20;;;9.20;;
64085;SDS011;50333;47.436;21.390;2023-02-28T15:07:45;23.67;;;10.40;;
64085;SDS011;50333;47.436;21.390;2023-02-28T15:10:19;17.92;;;10.98;;
64085;SDS011;50333;47.436;21.390;2023-02-28T15:12:52;14.20;;;10.07;;
64085;SDS011;50333;47.436;21.390;2023-02-28T15:15:20;19.25;;;10.52;;
64085;SDS011;50333;47.436;21.390;2023-02-28T15:18:06;18.37;;;8.70;;
64085;SDS011;50333;47.436;21.390;2023-02-28T15:20:36;20.15;;;10.10;;
64085;SDS011;50333;47.436;21.390;2023-02-28T15:23:06;18.80;;;10.35;;
64085;SDS011;50333;47.436;21.390;2023-02-28T15:25:34;41.05;;;19.45;;
64085;SDS011;50333;47.436;21.390;2023-02-28T15:28:02;66.90;;;26.58;;
64085;SDS011;50333;47.436;21.390;2023-02-28T15:30:30;173.35;;;55.10;;
64085;SDS011;50333;47.436;21.390;2023-02-28T15:33:19;132.85;;;59.05;;
64085;SDS011;50333;47.436;21.390;2023-02-28T15:35:49;179.80;;;63.10;;
64085;SDS011;50333;47.436;21.390;2023-02-28T15:40:52;78.90;;;30.83;;
64085;SDS011;50333;47.436;21.390;2023-02-28T15:43:25;49.97;;;20.62;;
64085;SDS011;50333;47.436;21.390;2023-02-28T15:45:56;37.10;;;16.95;;
64085;SDS011;50333;47.436;21.390;2023-02-28T15:48:38;181.18;;;63.85;;
64085;SDS011;50333;47.436;21.390;2023-02-28T15:56:44;253.50;;;153.68;;
64085;SDS011;50333;47.436;21.390;2023-02-28T15:59:27;47.80;;;37.40;;
64085;SDS011;50333;47.436;21.390;2023-02-28T16:04:37;15.57;;;11.07;;
64085;SDS011;50333;47.436;21.390;2023-02-28T16:07:27;17.73;;;12.18;;
64085;SDS011;50333;47.436;21.390;2023-02-28T16:09:57;23.80;;;14.23;;
64085;SDS011;50333;47.436;21.390;2023-02-28T16:12:26;16.85;;;10.88;;
64085;SDS011;50333;47.436;21.390;2023-02-28T16:14:57;15.20;;;10.32;;
64085;SDS011;50333;47.436;21.390;2023-02-28T16:17:30;13.73;;;9.90;;
64085;SDS011;50333;47.436;21.390;2023-02-28T16:20:05;18.42;;;11.80;;
64085;SDS011;50333;47.436;21.390;2023-02-28T16:22:42;14.05;;;9.25;;
64085;SDS011;50333;47.436;21.390;2023-02-28T16:25:11;27.50;;;13.77;;
64085;SDS011;50333;47.436;21.390;2023-02-28T16:27:45;34.25;;;21.52;;
64085;SDS011;50333;47.436;21.390;2023-02-28T16:30:19;28.87;;;21.17;;
64085;SDS011;50333;47.436;21.390;2023-02-28T16:32:52;26.60;;;20.65;;
64085;SDS011;50333;47.436;21.390;2023-02-28T16:35:23;23.45;;;17.80;;
64085;SDS011;50333;47.436;21.390;2023-02-28T16:37:51;30.67;;;22.67;;
64085;SDS011;50333;47.436;21.390;2023-02-28T16:40:22;24.42;;;17.35;;
64085;SDS011;50333;47.436;21.390;2023-02-28T16:42:53;17.00;;;11.90;;
64085;SDS011;50333;47.436;21.390;2023-02-28T16:45:26;12.43;;;8.48;;
64085;SDS011;50333;47.436;21.390;2023-02-28T16:47:56;13.62;;;9.45;;
64085;SDS011;50333;47.436;21.390;2023-02-28T16:50:27;12.05;;;8.98;;
64085;SDS011;50333;47.436;21.390;2023-02-28T16:52:57;12.60;;;9.77;;
64085;SDS011;50333;47.436;21.390;2023-02-28T16:55:25;17.08;;;11.32;;
64085;SDS011;50333;47.436;21.390;2023-02-28T16:57:57;98.18;;;61.90;;
64085;SDS011;50333;47.436;21.390;2023-02-28T17:00:28;47.53;;;34.42;;
64085;SDS011;50333;47.436;21.390;2023-02-28T17:02:57;16.33;;;11.80;;
64085;SDS011;50333;47.436;21.390;2023-02-28T17:05:26;24.33;;;16.33;;
64085;SDS011;50333;47.436;21.390;2023-02-28T17:08:00;18.00;;;13.57;;
64085;SDS011;50333;47.436;21.390;2023-02-28T17:10:29;19.48;;;13.80;;
64085;SDS011;50333;47.436;21.390;2023-02-28T17:12:57;14.13;;;11.07;;
64085;SDS011;50333;47.436;21.390;2023-02-28T17:15:41;14.02;;;9.82;;
64085;SDS011;50333;47.436;21.390;2023-02-28T17:18:14;15.77;;;10.73;;
64085;SDS011;50333;47.436;21.390;2023-02-28T17:20:46;14.18;;;10.95;;
64085;SDS011;50333;47.436;21.390;2023-02-28T17:23:15;16.45;;;10.75;;
64085;SDS011;50333;47.436;21.390;2023-02-28T17:25:44;21.17;;;13.02;;
64085;SDS011;50333;47.436;21.390;2023-02-28T17:28:23;19.65;;;13.23;;
64085;SDS011;50333;47.436;21.390;2023-02-28T17:30:51;23.85;;;14.48;;
64085;SDS011;50333;47.436;21.390;2023-02-28T17:33:19;22.58;;;12.88;;
64085;SDS011;50333;47.436;21.390;2023-02-28T17:35:47;27.23;;;15.70;;
64085;SDS011;50333;47.436;21.390;2023-02-28T17:38:16;22.87;;;13.77;;
64085;SDS011;50333;47.436;21.390;2023-02-28T17:40:45;23.65;;;16.52;;
64085;SDS011;50333;47.436;21.390;2023-02-28T17:43:13;24.30;;;17.48;;
64085;SDS011;50333;47.436;21.390;2023-02-28T17:45:42;15.35;;;11.63;;
64085;SDS011;50333;47.436;21.390;2023-02-28T17:48:11;33.25;;;17.30;;
64085;SDS011;50333;47.436;21.390;2023-02-28T17:50:40;62.88;;;26.52;;
64085;SDS011;50333;47.436;21.390;2023-02-28T17:53:08;33.45;;;15.98;;
64085;SDS011;50333;47.436;21.390;2023-02-28T17:55:36;38.03;;;19.67;;
64085;SDS011;50333;47.436;21.390;2023-02-28T17:58:04;42.72;;;24.63;;
64085;SDS011;50333;47.436;21.390;2023-02-28T18:00:32;34.40;;;19.27;;